createdAt,value
2019-01-04T00:00:02.799Z,16.40
2019-01-04T00:03:15.300Z,17.33
2019-01-04T00:05:55.504Z,17.97
2019-01-04T00:08:51.603Z,17.23
2019-01-04T00:11:33.497Z,16.10
2019-01-04T00:14:40.915Z,12.93
2019-01-04T00:21:30.477Z,7.90
2019-01-04T00:24:27.746Z,7.05
2019-01-04T00:27:06.152Z,7.37
2019-01-04T00:29:51.581Z,7.77
2019-01-04T00:32:31.586Z,6.63
2019-01-04T00:35:07.162Z,7.22
2019-01-04T00:37:38.430Z,8.87
2019-01-04T00:40:27.166Z,9.20
2019-01-04T00:42:58.866Z,8.30
2019-01-04T00:45:33.007Z,9.73
2019-01-04T00:48:07.578Z,11.27
2019-01-04T00:50:39.474Z,11.87
2019-01-04T00:53:21.928Z,11.70
2019-01-04T00:56:20.043Z,12.90
2019-01-04T01:00:02.835Z,15.10
2019-01-04T01:03:18.326Z,15.17
2019-01-04T01:06:41.230Z,16.13
2019-01-04T01:10:14.583Z,16.80
2019-01-04T01:13:26.598Z,16.00
2019-01-04T01:16:34.886Z,17.00
2019-01-04T01:20:00.131Z,17.47
2019-01-04T01:23:13.680Z,18.60
2019-01-04T01:26:21.207Z,17.25
2019-01-04T01:29:27.872Z,19.53
2019-01-04T01:32:32.078Z,17.03
2019-01-04T01:35:45.070Z,17.23
2019-01-04T01:38:56.411Z,16.00
2019-01-04T01:42:11.861Z,16.80
2019-01-04T01:45:25.430Z,17.27
2019-01-04T01:48:19.103Z,16.37
2019-01-04T01:54:35.500Z,14.77
2019-01-04T01:57:07.146Z,15.53
2019-01-04T01:59:43.155Z,15.27
2019-01-04T02:02:25.831Z,13.45
2019-01-04T02:05:02.266Z,14.67
2019-01-04T02:07:32.709Z,15.47
2019-01-04T02:10:13.059Z,13.68
2019-01-04T02:12:53.890Z,13.60
2019-01-04T02:15:26.991Z,14.13
2019-01-04T02:18:05.631Z,15.03
2019-01-04T02:20:34.497Z,13.77
2019-01-04T02:23:05.728Z,14.90
2019-01-04T02:25:45.952Z,13.10
2019-01-04T02:28:22.795Z,13.80
2019-01-04T02:31:02.786Z,14.90
2019-01-04T02:33:35.456Z,13.87
2019-01-04T02:36:06.205Z,12.93
2019-01-04T02:38:37.922Z,14.37
2019-01-04T02:41:09.180Z,14.50
2019-01-04T02:43:47.322Z,14.33
2019-01-04T02:46:26.082Z,13.87
2019-01-04T02:49:00.885Z,13.20
2019-01-04T02:51:31.773Z,13.90
2019-01-04T02:54:09.232Z,14.47
2019-01-04T02:56:39.828Z,13.57
2019-01-04T02:59:12.338Z,13.60
2019-01-04T03:01:43.574Z,13.10
2019-01-04T03:04:18.790Z,12.77
2019-01-04T03:06:49.021Z,13.20
2019-01-04T03:09:27.331Z,13.37
2019-01-04T03:12:08.075Z,13.20
2019-01-04T03:14:41.029Z,13.97
2019-01-04T03:17:12.943Z,14.60
2019-01-04T03:19:47.815Z,13.37
2019-01-04T03:22:26.493Z,13.47
2019-01-04T03:24:59.357Z,12.33
2019-01-04T03:27:30.949Z,11.30
2019-01-04T03:30:01.901Z,12.73
2019-01-04T03:32:32.966Z,11.63
2019-01-04T03:35:06.688Z,11.43
2019-01-04T03:37:38.020Z,11.90
2019-01-04T03:40:09.357Z,13.60
2019-01-04T03:42:40.405Z,12.83
2019-01-04T03:45:11.816Z,12.13
2019-01-04T03:47:53.526Z,13.17
2019-01-04T03:50:25.184Z,13.20
2019-01-04T03:52:56.195Z,11.73
2019-01-04T03:55:32.360Z,11.23
2019-01-04T03:58:03.903Z,11.20
2019-01-04T04:00:34.111Z,12.23
2019-01-04T04:03:10.024Z,11.60
2019-01-04T04:05:47.633Z,13.03
2019-01-04T04:08:21.062Z,12.97
2019-01-04T04:10:53.304Z,13.70
2019-01-04T04:13:32.891Z,13.40
2019-01-04T04:16:08.315Z,13.33
2019-01-04T04:18:40.538Z,16.33
2019-01-04T04:21:10.719Z,14.10
2019-01-04T04:23:43.569Z,13.87
2019-01-04T04:26:14.747Z,15.07
2019-01-04T04:28:50.065Z,13.00
2019-01-04T04:31:18.970Z,12.88
2019-01-04T04:33:49.659Z,14.57
2019-01-04T04:36:22.790Z,13.07
2019-01-04T04:39:05.803Z,15.57
2019-01-04T04:41:48.378Z,14.90
2019-01-04T04:44:22.656Z,12.90
2019-01-04T04:47:01.266Z,13.63
2019-01-04T04:49:37.810Z,14.83
2019-01-04T04:52:07.664Z,13.50
2019-01-04T04:54:43.955Z,14.03
2019-01-04T04:57:14.389Z,15.33
2019-01-04T04:59:57.435Z,14.07
2019-01-04T05:03:16.224Z,14.53
2019-01-04T05:05:47.163Z,16.20
2019-01-04T05:08:23.231Z,16.07
2019-01-04T05:11:05.825Z,15.37
2019-01-04T05:13:43.951Z,15.43
2019-01-04T05:16:52.820Z,14.80
2019-01-04T05:19:34.734Z,14.23
2019-01-04T05:22:19.299Z,15.07
2019-01-04T05:24:48.004Z,13.80
2019-01-04T05:27:38.972Z,12.80
2019-01-04T05:30:09.207Z,14.43
2019-01-04T05:32:44.623Z,13.10
2019-01-04T05:35:16.096Z,15.13
2019-01-04T05:38:06.463Z,14.73
2019-01-04T05:40:47.448Z,15.13
2019-01-04T05:43:25.388Z,13.90
2019-01-04T05:48:59.269Z,13.60
2019-01-04T05:51:29.905Z,14.60
2019-01-04T05:53:59.807Z,11.63
2019-01-04T05:56:31.750Z,13.83
2019-01-04T05:59:05.603Z,12.60
2019-01-04T06:01:38.100Z,12.70
2019-01-04T06:04:12.038Z,11.00
2019-01-04T06:06:54.444Z,10.57
2019-01-04T06:09:38.526Z,11.20
2019-01-04T06:12:10.769Z,11.20
2019-01-04T06:14:43.851Z,16.13
2019-01-04T06:17:14.711Z,12.30
2019-01-04T06:19:50.117Z,11.77
2019-01-04T06:22:21.696Z,11.97
2019-01-04T06:24:54.293Z,11.27
2019-01-04T06:27:34.916Z,13.43
2019-01-04T06:30:26.690Z,12.10
2019-01-04T06:33:01.848Z,14.20
2019-01-04T06:35:37.381Z,13.33
2019-01-04T06:38:09.256Z,13.15
2019-01-04T06:40:40.010Z,14.07
2019-01-04T06:43:25.922Z,11.87
2019-01-04T06:46:15.503Z,11.93
2019-01-04T07:00:24.489Z,14.70
2019-01-04T07:03:05.262Z,15.80
2019-01-04T07:05:36.459Z,15.23
2019-01-04T07:08:06.533Z,14.97
2019-01-04T07:10:37.071Z,16.73
2019-01-04T07:13:07.232Z,15.00
2019-01-04T07:15:39.199Z,13.30
2019-01-04T07:18:09.542Z,13.00
2019-01-04T07:45:47.943Z,12.70
2019-01-04T07:48:19.032Z,12.20
2019-01-04T07:50:50.734Z,12.93
2019-01-04T07:53:23.651Z,13.87
2019-01-04T07:55:55.757Z,13.90
2019-01-04T07:58:25.713Z,14.30
2019-01-04T08:00:55.345Z,12.90
2019-01-04T08:03:26.770Z,10.40
2019-01-04T08:05:59.384Z,10.57
2019-01-04T08:08:29.306Z,11.30
2019-01-04T08:10:59.098Z,12.75
2019-01-04T08:13:30.244Z,14.60
2019-01-04T08:16:00.023Z,15.50
2019-01-04T08:18:29.858Z,14.03
2019-01-04T08:21:00.372Z,15.10
2019-01-04T08:23:32.379Z,15.40
2019-01-04T08:36:30.120Z,12.67
2019-01-04T08:39:02.049Z,18.00
2019-01-04T08:41:36.543Z,17.97
2019-01-04T08:44:09.076Z,17.13
2019-01-04T08:46:40.269Z,11.63
2019-01-04T08:49:18.049Z,12.80
2019-01-04T08:51:57.246Z,11.53
2019-01-04T08:54:28.458Z,12.50
2019-01-04T08:57:09.960Z,12.87
2019-01-04T08:59:40.218Z,12.43
2019-01-04T09:02:10.577Z,13.00
2019-01-04T09:04:47.223Z,12.80
2019-01-04T09:07:17.855Z,11.80
2019-01-04T09:09:47.923Z,14.05
2019-01-04T09:12:21.967Z,12.63
2019-01-04T09:14:52.700Z,13.50
2019-01-04T09:17:32.292Z,14.90
2019-01-04T09:20:08.054Z,15.50
2019-01-04T09:22:38.747Z,14.43
2019-01-04T09:25:10.346Z,15.47
2019-01-04T09:27:41.057Z,15.57
2019-01-04T09:30:13.526Z,16.40
2019-01-04T09:32:43.845Z,16.43
2019-01-04T09:35:15.375Z,16.67
2019-01-04T09:37:46.811Z,15.93
2019-01-04T09:40:18.688Z,16.60
2019-01-04T09:42:54.393Z,16.00
2019-01-04T09:45:35.275Z,15.80
2019-01-04T09:48:05.540Z,13.43
2019-01-04T09:50:42.301Z,14.60
2019-01-04T09:53:12.975Z,14.20
2019-01-04T09:55:47.328Z,14.87
2019-01-04T09:58:23.855Z,13.93
2019-01-04T10:00:57.627Z,13.30
2019-01-04T10:03:32.570Z,14.00
2019-01-04T10:06:07.942Z,13.67
2019-01-04T10:08:47.793Z,13.27
2019-01-04T10:11:29.089Z,12.33
2019-01-04T10:14:08.500Z,10.10
2019-01-04T10:16:53.639Z,12.83
2019-01-04T10:19:34.095Z,11.67
2019-01-04T10:22:04.852Z,12.60
2019-01-04T10:24:35.999Z,9.93
2019-01-04T10:27:06.560Z,9.70
2019-01-04T10:29:44.369Z,9.30
2019-01-04T10:32:18.939Z,9.85
2019-01-04T10:34:56.797Z,10.57
2019-01-04T10:37:27.670Z,11.57
2019-01-04T10:40:01.664Z,8.77
2019-01-04T10:42:32.249Z,9.73
2019-01-04T10:45:03.267Z,9.30
2019-01-04T10:47:33.042Z,9.57
2019-01-04T10:50:04.069Z,7.83
2019-01-04T10:52:36.044Z,9.80
2019-01-04T10:55:06.174Z,10.70
2019-01-04T10:57:37.248Z,9.83
2019-01-04T11:00:09.382Z,9.57
2019-01-04T11:02:40.282Z,10.83
2019-01-04T11:05:09.984Z,9.30
2019-01-04T11:07:42.608Z,9.43
2019-01-04T11:10:16.315Z,9.23
2019-01-04T11:12:47.067Z,9.78
2019-01-04T11:15:17.927Z,10.23
2019-01-04T11:17:54.984Z,10.55
2019-01-04T11:20:45.215Z,9.37
2019-01-04T11:23:59.591Z,10.20
2019-01-04T11:26:57.137Z,10.50
2019-01-04T11:30:13.966Z,12.07
2019-01-04T11:33:24.763Z,13.50
2019-01-04T11:36:40.650Z,12.57
2019-01-04T11:39:37.663Z,10.40
2019-01-04T11:42:34.359Z,9.93
2019-01-04T11:46:05.914Z,10.57
2019-01-04T11:49:05.391Z,9.70
2019-01-04T12:00:57.045Z,8.25
2019-01-04T12:32:07.903Z,10.87
2019-01-04T12:39:38.758Z,9.60
2019-01-04T13:41:49.899Z,8.93
2019-01-04T13:48:58.460Z,7.10
2019-01-04T13:56:12.725Z,11.00
2019-01-04T14:03:00.832Z,8.27
2019-01-04T14:05:32.187Z,10.17
2019-01-04T14:08:02.939Z,10.07
2019-01-04T14:10:33.634Z,8.37
2019-01-04T14:13:09.372Z,9.23
2019-01-04T14:15:38.371Z,7.13
2019-01-04T14:18:08.581Z,6.63
2019-01-04T14:20:39.335Z,7.30
2019-01-04T14:23:10.579Z,7.60
2019-01-04T14:25:41.888Z,7.70
2019-01-04T14:28:11.862Z,7.73
2019-01-04T14:30:41.944Z,10.20
2019-01-04T14:33:12.457Z,9.70
2019-01-04T14:35:42.444Z,8.80
2019-01-04T14:38:13.652Z,7.60
2019-01-04T14:40:43.227Z,6.80
2019-01-04T14:43:13.769Z,8.50
2019-01-04T14:45:44.440Z,7.50
2019-01-04T14:48:15.467Z,8.03
2019-01-04T14:50:45.679Z,8.27
2019-01-04T14:53:15.653Z,8.93
2019-01-04T14:55:46.205Z,8.40
2019-01-04T14:58:17.884Z,8.60
2019-01-04T15:00:49.880Z,8.47
2019-01-04T15:03:21.687Z,9.73
2019-01-04T15:05:55.747Z,9.53
2019-01-04T15:08:27.631Z,8.43
2019-01-04T15:10:59.464Z,9.00
2019-01-04T15:13:29.858Z,9.10
2019-01-04T15:15:59.808Z,8.00
2019-01-04T15:18:32.691Z,9.70
2019-01-04T15:21:02.744Z,10.20
2019-01-04T15:23:32.935Z,10.13
2019-01-04T15:26:02.549Z,11.07
2019-01-04T15:28:32.291Z,12.70
2019-01-04T15:31:01.796Z,12.90
2019-01-04T15:33:32.300Z,10.60
2019-01-04T15:36:02.775Z,12.73
2019-01-04T15:38:36.405Z,13.10
2019-01-04T15:41:04.840Z,13.97
2019-01-04T15:43:35.636Z,13.10
2019-01-04T15:46:05.700Z,14.13
2019-01-04T15:48:35.580Z,15.77
2019-01-04T15:51:05.258Z,13.67
2019-01-04T15:53:35.534Z,15.30
2019-01-04T15:56:05.286Z,14.73
2019-01-04T15:58:35.617Z,15.97
2019-01-04T16:01:05.305Z,13.53
2019-01-04T16:03:35.549Z,13.83
2019-01-04T16:06:04.974Z,12.80
2019-01-04T16:08:35.440Z,13.93
2019-01-04T16:11:05.947Z,13.23
2019-01-04T16:13:35.952Z,14.10
2019-01-04T16:16:05.830Z,13.70
2019-01-04T16:18:35.825Z,17.83
2019-01-04T16:21:05.294Z,15.83
2019-01-04T16:23:35.176Z,19.90
2019-01-04T16:26:05.259Z,22.63
2019-01-04T16:28:35.588Z,21.10
2019-01-04T16:31:05.026Z,19.82
2019-01-04T16:33:34.578Z,24.47
2019-01-04T16:36:04.810Z,22.80
2019-01-04T16:38:35.311Z,22.30
2019-01-04T16:41:05.250Z,25.02
2019-01-04T16:53:35.348Z,17.53
2019-01-04T16:56:13.174Z,17.17
2019-01-04T16:58:42.750Z,16.20
2019-01-04T17:01:12.986Z,15.00
2019-01-04T17:03:42.850Z,14.17
2019-01-04T17:06:13.635Z,14.47
2019-01-04T17:08:44.149Z,12.30
2019-01-04T17:11:14.420Z,13.37
2019-01-04T17:17:30.110Z,12.17
2019-01-04T17:20:00.494Z,10.10
2019-01-04T17:25:29.844Z,11.10
2019-01-04T17:27:59.619Z,9.17
2019-01-04T17:30:29.888Z,9.10
2019-01-04T17:33:00.264Z,10.20
2019-01-04T17:35:30.155Z,10.70
2019-01-04T17:38:00.428Z,9.03
2019-01-04T17:40:40.991Z,10.40
2019-01-04T17:43:11.757Z,11.50
2019-01-04T18:20:52.136Z,7.10
2019-01-04T18:23:23.517Z,8.80
2019-01-04T18:25:57.062Z,7.97
2019-01-04T18:28:27.191Z,11.10
2019-01-04T18:31:01.910Z,9.47
2019-01-04T18:33:38.571Z,10.50
2019-01-04T18:36:10.692Z,10.90
2019-01-04T18:38:42.105Z,9.47
2019-01-04T18:41:22.980Z,14.80
2019-01-04T18:47:44.287Z,12.60
2019-01-04T18:50:24.837Z,13.33
2019-01-04T18:53:08.503Z,11.57
2019-01-04T18:59:12.493Z,12.40
2019-01-04T19:01:59.875Z,12.93
2019-01-04T19:04:30.494Z,12.13
2019-01-04T19:07:01.550Z,11.87
2019-01-04T19:09:32.927Z,10.60
2019-01-04T19:12:03.471Z,11.47
2019-01-04T19:18:18.657Z,11.40
2019-01-04T19:24:13.250Z,12.70
2019-01-04T19:26:43.942Z,11.80
2019-01-04T19:29:18.980Z,12.30
2019-01-04T19:32:00.617Z,13.30
2019-01-04T19:34:37.264Z,13.90
2019-01-04T19:37:12.865Z,14.43
2019-01-04T19:39:53.071Z,14.33
2019-01-04T19:42:27.340Z,14.67
2019-01-04T19:44:58.742Z,15.20
2019-01-04T19:52:18.381Z,13.10
2019-01-04T19:55:20.647Z,15.17
2019-01-04T20:02:52.413Z,12.80
2019-01-04T20:07:10.232Z,14.43
2019-01-04T20:14:24.219Z,14.00
2019-01-04T20:18:11.436Z,13.30
2019-01-04T20:21:30.144Z,13.40
2019-01-04T20:25:04.523Z,14.47
2019-01-04T20:29:36.013Z,11.20
2019-01-04T20:39:18.487Z,10.73
2019-01-04T20:43:05.299Z,10.80
2019-01-04T21:15:49.778Z,10.63
2019-01-04T21:19:02.295Z,11.27
2019-01-04T21:22:50.237Z,10.07
2019-01-04T21:25:43.609Z,11.85
2019-01-04T21:28:35.386Z,11.70
2019-01-04T21:39:49.565Z,11.03
2019-01-04T21:47:17.912Z,10.70
2019-01-04T21:57:13.811Z,10.70
2019-01-04T22:00:15.650Z,9.57
2019-01-04T22:07:20.194Z,9.57
2019-01-04T22:24:44.527Z,10.47
2019-01-04T22:30:40.349Z,11.00
2019-01-04T22:41:49.107Z,10.43
2019-01-04T22:45:33.074Z,9.93
2019-01-04T22:56:13.406Z,10.00
2019-01-04T22:59:20.939Z,10.53
2019-01-04T23:02:14.315Z,10.25
2019-01-04T23:05:03.278Z,9.90
2019-01-04T23:07:54.783Z,10.03
2019-01-04T23:10:48.689Z,10.57
2019-01-04T23:13:38.782Z,9.77
2019-01-04T23:16:32.178Z,10.20
2019-01-04T23:19:33.297Z,10.17
2019-01-04T23:22:31.579Z,9.97
2019-01-04T23:25:29.427Z,10.33
2019-01-04T23:28:29.197Z,10.10
2019-01-04T23:31:19.654Z,10.67
2019-01-04T23:34:17.894Z,10.37
2019-01-04T23:37:12.625Z,9.83
2019-01-04T23:40:02.349Z,10.47
2019-01-04T23:42:50.624Z,10.80
2019-01-04T23:52:08.240Z,10.10
2019-01-04T23:54:56.317Z,9.97
2019-01-04T23:57:55.800Z,9.60
